createdAt,value
2022-11-20T00:00:19.364Z,6.47
2022-11-20T00:02:48.190Z,8.48
2022-11-20T00:05:15.794Z,6.45
2022-11-20T00:07:43.372Z,7.03
2022-11-20T00:10:11.037Z,7.18
2022-11-20T00:12:38.469Z,7.13
2022-11-20T00:15:06.212Z,7.30
2022-11-20T00:17:33.737Z,6.40
2022-11-20T00:20:02.550Z,7.13
2022-11-20T00:22:29.981Z,6.18
2022-11-20T00:24:58.293Z,7.65
2022-11-20T00:27:25.841Z,7.38
2022-11-20T00:29:53.292Z,7.05
2022-11-20T00:32:20.768Z,7.20
2022-11-20T00:34:48.238Z,7.20
2022-11-20T00:37:17.063Z,6.70
2022-11-20T00:39:44.522Z,7.10
2022-11-20T00:42:11.985Z,6.88
2022-11-20T00:44:39.593Z,7.75
2022-11-20T00:47:07.029Z,7.43
2022-11-20T00:49:34.496Z,8.25
2022-11-20T00:52:01.994Z,7.35
2022-11-20T00:54:30.869Z,7.38
2022-11-20T00:56:58.338Z,7.57
2022-11-20T00:59:25.819Z,7.45
2022-11-20T01:01:53.313Z,7.65
2022-11-20T01:04:20.787Z,6.55
2022-11-20T01:06:48.270Z,7.38
2022-11-20T01:09:16.059Z,7.80
2022-11-20T01:11:45.931Z,6.28
2022-11-20T01:14:14.023Z,7.40
2022-11-20T01:16:42.718Z,7.07
2022-11-20T01:19:15.955Z,6.68
2022-11-20T01:21:45.534Z,6.80
2022-11-20T01:24:13.713Z,6.95
2022-11-20T01:26:42.109Z,7.75
2022-11-20T01:29:13.174Z,7.00
2022-11-20T01:31:40.648Z,7.13
2022-11-20T01:34:08.981Z,8.35
2022-11-20T01:36:37.453Z,8.20
2022-11-20T01:39:06.181Z,7.50
2022-11-20T01:41:51.909Z,7.20
2022-11-20T01:44:21.606Z,7.55
2022-11-20T01:46:54.625Z,7.82
2022-11-20T01:49:23.812Z,6.93
2022-11-20T01:51:52.858Z,7.60
2022-11-20T01:54:21.430Z,8.02
2022-11-20T01:56:51.394Z,8.13
2022-11-20T01:59:20.030Z,7.63
2022-11-20T02:01:49.086Z,7.40
2022-11-20T02:04:17.403Z,7.28
2022-11-20T02:06:46.706Z,7.00
2022-11-20T02:09:14.397Z,7.50
2022-11-20T02:11:41.858Z,7.28
2022-11-20T02:14:08.817Z,7.20
2022-11-20T02:16:38.191Z,8.55
2022-11-20T02:19:10.024Z,7.25
2022-11-20T02:21:40.908Z,9.27
2022-11-20T02:24:11.808Z,7.10
2022-11-20T02:26:47.798Z,6.82
2022-11-20T02:29:16.354Z,6.68
2022-11-20T02:31:45.404Z,4.72
2022-11-20T02:34:12.819Z,7.00
2022-11-20T02:36:41.297Z,7.18
2022-11-20T02:39:08.785Z,7.93
2022-11-20T02:41:38.545Z,6.10
2022-11-20T02:44:06.464Z,7.70
2022-11-20T02:46:34.497Z,7.28
2022-11-20T02:49:02.719Z,7.32
2022-11-20T02:51:30.246Z,6.88
2022-11-20T02:53:57.699Z,6.95
2022-11-20T02:56:25.302Z,6.82
2022-11-20T02:58:54.136Z,7.22
2022-11-20T03:01:21.654Z,7.28
2022-11-20T03:03:50.215Z,6.47
2022-11-20T03:06:18.024Z,6.53
2022-11-20T03:08:45.651Z,7.82
2022-11-20T03:11:13.237Z,7.65
2022-11-20T03:13:41.052Z,7.53
2022-11-20T03:16:11.394Z,6.93
2022-11-20T03:18:38.949Z,7.07
2022-11-20T03:21:06.783Z,7.60
2022-11-20T03:23:35.871Z,7.78
2022-11-20T03:26:09.890Z,6.97
2022-11-20T03:28:37.359Z,6.90
2022-11-20T03:31:08.749Z,7.53
2022-11-20T03:33:37.589Z,7.15
2022-11-20T03:36:05.927Z,7.72
2022-11-20T03:38:33.541Z,7.70
2022-11-20T03:41:02.474Z,7.60
2022-11-20T03:43:30.165Z,7.85
2022-11-20T03:45:57.620Z,7.63
2022-11-20T03:48:25.106Z,7.97
2022-11-20T03:50:54.366Z,8.63
2022-11-20T03:53:21.960Z,7.68
2022-11-20T03:55:52.766Z,7.10
2022-11-20T03:58:20.259Z,7.65
2022-11-20T04:00:47.770Z,7.90
2022-11-20T04:03:15.249Z,7.88
2022-11-20T04:05:42.723Z,7.25
2022-11-20T04:08:11.555Z,7.80
2022-11-20T04:10:39.009Z,8.25
2022-11-20T04:13:06.470Z,8.60
2022-11-20T04:15:38.231Z,8.32
2022-11-20T04:18:06.172Z,7.57
2022-11-20T04:20:33.595Z,8.63
2022-11-20T04:23:01.045Z,8.45
2022-11-20T04:25:29.863Z,8.00
2022-11-20T04:27:57.354Z,7.75
2022-11-20T04:30:24.845Z,7.60
2022-11-20T04:32:52.283Z,7.65
2022-11-20T04:35:19.733Z,8.13
2022-11-20T04:37:47.194Z,8.85
2022-11-20T04:40:14.710Z,6.80
2022-11-20T04:42:43.512Z,7.28
2022-11-20T04:45:11.160Z,8.50
2022-11-20T04:47:38.690Z,7.78
2022-11-20T04:50:06.707Z,7.40
2022-11-20T04:52:34.240Z,7.63
2022-11-20T04:55:01.722Z,7.35
2022-11-20T04:57:29.168Z,7.05
2022-11-20T04:59:57.997Z,8.38
2022-11-20T05:02:25.794Z,7.55
2022-11-20T05:04:53.306Z,7.90
2022-11-20T05:07:20.757Z,8.85
2022-11-20T05:09:48.239Z,7.47
2022-11-20T05:12:15.700Z,7.30
2022-11-20T05:14:43.205Z,7.38
2022-11-20T05:17:13.616Z,7.90
2022-11-20T05:19:41.044Z,6.85
2022-11-20T05:22:08.474Z,7.43
2022-11-20T05:24:35.934Z,8.00
2022-11-20T05:27:03.392Z,8.25
2022-11-20T05:29:30.868Z,7.97
2022-11-20T05:31:58.402Z,7.05
2022-11-20T05:34:27.229Z,8.20
2022-11-20T05:36:54.706Z,7.50
2022-11-20T05:39:22.310Z,7.82
2022-11-20T05:42:10.579Z,8.02
2022-11-20T05:44:38.078Z,6.90
2022-11-20T05:47:05.601Z,7.68
2022-11-20T05:49:34.616Z,7.97
2022-11-20T05:52:02.101Z,7.50
2022-11-20T05:54:29.602Z,7.78
2022-11-20T05:56:57.053Z,7.32
2022-11-20T05:59:24.562Z,7.68
2022-11-20T06:01:52.071Z,8.20
2022-11-20T06:04:19.567Z,7.75
2022-11-20T06:06:48.387Z,7.60
2022-11-20T06:09:15.854Z,7.70
2022-11-20T06:11:43.337Z,7.70
2022-11-20T06:14:10.841Z,9.15
2022-11-20T06:16:38.415Z,7.97
2022-11-20T06:19:05.850Z,8.02
2022-11-20T06:21:33.387Z,8.73
2022-11-20T06:24:03.448Z,8.50
2022-11-20T06:26:32.061Z,6.72
2022-11-20T06:28:59.557Z,7.55
2022-11-20T06:31:27.446Z,7.60
2022-11-20T06:33:55.277Z,7.32
2022-11-20T06:36:23.583Z,6.93
2022-11-20T06:38:51.251Z,7.55
2022-11-20T06:41:21.014Z,7.65
2022-11-20T06:43:48.529Z,6.75
2022-11-20T06:46:18.413Z,7.60
2022-11-20T06:48:46.244Z,7.45
2022-11-20T06:51:13.711Z,7.55
2022-11-20T06:53:41.364Z,6.53
2022-11-20T06:56:09.228Z,7.28
2022-11-20T06:58:38.655Z,7.60
2022-11-20T07:01:07.148Z,7.22
2022-11-20T07:03:34.756Z,7.00
2022-11-20T07:06:02.651Z,7.60
2022-11-20T07:08:30.206Z,7.40
2022-11-20T07:11:00.680Z,7.63
2022-11-20T07:13:28.539Z,6.93
2022-11-20T07:15:57.370Z,7.10
2022-11-20T07:18:24.822Z,7.55
2022-11-20T07:20:52.247Z,7.32
2022-11-20T07:23:19.769Z,6.65
2022-11-20T07:25:47.222Z,7.32
2022-11-20T07:28:14.738Z,8.55
2022-11-20T07:30:42.234Z,5.68
2022-11-20T07:33:11.120Z,7.40
2022-11-20T07:35:38.613Z,8.15
2022-11-20T07:38:06.134Z,7.20
2022-11-20T07:40:33.641Z,7.63
2022-11-20T07:43:01.103Z,7.85
2022-11-20T07:45:28.592Z,8.25
2022-11-20T07:47:56.087Z,7.60
2022-11-20T07:50:24.925Z,8.25
2022-11-20T07:52:53.139Z,7.80
2022-11-20T07:55:20.650Z,8.63
2022-11-20T07:57:48.195Z,8.38
2022-11-20T08:00:16.141Z,8.25
2022-11-20T08:02:43.614Z,8.25
2022-11-20T08:05:11.717Z,8.02
2022-11-20T08:07:41.298Z,8.80
2022-11-20T08:10:09.926Z,8.30
2022-11-20T08:12:55.088Z,8.85
2022-11-20T08:15:22.600Z,7.90
2022-11-20T08:18:15.460Z,9.00
2022-11-20T08:20:37.762Z,8.07
2022-11-20T08:23:07.337Z,8.98
2022-11-20T08:25:34.989Z,8.82
2022-11-20T08:28:15.717Z,8.68
2022-11-20T08:30:47.588Z,9.05
2022-11-20T08:33:15.064Z,8.35
2022-11-20T08:35:43.841Z,9.02
2022-11-20T08:38:12.675Z,7.90
2022-11-20T08:40:40.168Z,9.35
2022-11-20T08:43:07.687Z,7.90
2022-11-20T08:45:35.617Z,8.60
2022-11-20T08:48:03.597Z,8.00
2022-11-20T08:50:33.156Z,8.30
2022-11-20T08:53:04.159Z,8.05
2022-11-20T08:55:32.999Z,7.47
2022-11-20T08:58:00.517Z,7.93
2022-11-20T09:00:28.346Z,7.88
2022-11-20T09:02:55.806Z,7.95
2022-11-20T09:05:23.287Z,7.70
2022-11-20T09:07:50.782Z,7.38
2022-11-20T09:10:25.535Z,7.72
2022-11-20T09:12:55.953Z,6.45
2022-11-20T09:15:23.950Z,7.32
2022-11-20T09:17:54.206Z,6.68
2022-11-20T09:20:21.821Z,7.32
2022-11-20T09:22:49.403Z,7.50
2022-11-20T09:25:16.947Z,7.63
2022-11-20T09:27:46.702Z,5.85
2022-11-20T09:30:15.489Z,7.85
2022-11-20T09:32:44.362Z,7.60
2022-11-20T09:35:12.224Z,7.80
2022-11-20T09:37:39.851Z,8.23
2022-11-20T09:40:08.236Z,6.25
2022-11-20T09:42:42.044Z,7.25
2022-11-20T09:45:23.668Z,7.28
2022-11-20T09:48:05.993Z,7.40
2022-11-20T09:50:38.059Z,7.72
2022-11-20T09:53:14.054Z,7.25
2022-11-20T09:55:41.579Z,7.50
2022-11-20T09:58:09.515Z,9.07
2022-11-20T10:00:37.898Z,7.88
2022-11-20T10:03:08.076Z,7.85
2022-11-20T10:05:40.748Z,8.35
2022-11-20T10:08:15.089Z,8.40
2022-11-20T10:10:45.730Z,7.65
2022-11-20T10:13:23.378Z,7.95
2022-11-20T10:15:57.524Z,8.25
2022-11-20T10:18:32.921Z,7.90
2022-11-20T10:21:05.114Z,8.32
2022-11-20T10:23:42.705Z,6.47
2022-11-20T10:26:18.577Z,8.20
2022-11-20T10:28:57.214Z,7.70
2022-11-20T10:31:29.640Z,7.85
2022-11-20T10:34:11.489Z,9.23
2022-11-20T10:36:44.517Z,8.25
2022-11-20T10:39:17.814Z,8.23
2022-11-20T10:41:49.320Z,8.82
2022-11-20T10:44:37.778Z,8.95
2022-11-20T10:47:06.101Z,5.22
2022-11-20T10:53:01.974Z,7.65
2022-11-20T10:55:32.335Z,8.13
2022-11-20T10:58:03.863Z,6.85
2022-11-20T11:00:32.815Z,6.80
2022-11-20T11:03:03.783Z,9.05
2022-11-20T11:05:38.009Z,7.97
2022-11-20T11:08:09.768Z,9.63
2022-11-20T11:10:39.910Z,8.25
2022-11-20T11:13:07.379Z,9.10
2022-11-20T11:15:39.922Z,9.43
2022-11-20T11:18:10.426Z,10.30
2022-11-20T11:20:37.931Z,9.48
2022-11-20T11:23:13.213Z,8.05
2022-11-20T11:25:40.819Z,10.60
2022-11-20T11:28:21.677Z,9.30
2022-11-20T11:30:50.285Z,10.30
2022-11-20T11:33:21.024Z,11.00
2022-11-20T11:35:51.304Z,14.00
2022-11-20T11:38:23.325Z,10.13
2022-11-20T11:40:50.880Z,14.15
2022-11-20T11:43:36.918Z,12.48
2022-11-20T11:46:07.700Z,12.02
2022-11-20T11:48:35.253Z,9.38
2022-11-20T11:51:02.771Z,9.40
2022-11-20T11:53:32.068Z,9.68
2022-11-20T11:56:04.756Z,8.75
2022-11-20T11:58:44.774Z,8.13
2022-11-20T12:01:18.650Z,9.05
2022-11-20T12:03:51.068Z,8.07
2022-11-20T12:06:18.983Z,8.05
2022-11-20T12:08:51.361Z,8.10
2022-11-20T12:11:21.732Z,8.80
2022-11-20T12:13:53.107Z,8.57
2022-11-20T12:16:21.525Z,7.55
2022-11-20T12:18:50.859Z,8.27
2022-11-20T12:21:22.814Z,7.53
2022-11-20T12:24:02.132Z,7.80
2022-11-20T12:26:35.870Z,8.00
2022-11-20T12:29:07.248Z,7.60
2022-11-20T12:34:11.070Z,8.32
2022-11-20T12:36:42.897Z,7.65
2022-11-20T12:39:19.026Z,7.25
2022-11-20T12:42:11.330Z,7.05
2022-11-20T12:45:00.771Z,6.80
2022-11-20T12:47:33.705Z,7.43
2022-11-20T12:50:04.420Z,7.22
2022-11-20T12:52:41.254Z,7.85
2022-11-20T12:55:29.763Z,6.53
2022-11-20T12:58:00.388Z,4.55
2022-11-20T13:00:28.114Z,6.88
2022-11-20T13:03:28.792Z,5.00
2022-11-20T13:06:00.487Z,5.75
2022-11-20T13:08:29.662Z,4.57
2022-11-20T13:11:02.119Z,5.15
2022-11-20T13:13:33.418Z,4.10
2022-11-20T13:16:03.399Z,4.90
2022-11-20T13:18:36.215Z,4.85
2022-11-20T13:21:03.785Z,4.63
2022-11-20T13:23:31.277Z,4.20
2022-11-20T13:26:06.688Z,4.53
2022-11-20T13:28:34.196Z,5.00
2022-11-20T13:31:01.699Z,4.03
2022-11-20T13:33:32.878Z,4.85
2022-11-20T13:36:01.538Z,3.97
2022-11-20T13:38:33.907Z,4.13
2022-11-20T13:41:22.840Z,4.65
2022-11-20T13:43:51.822Z,3.53
2022-11-20T13:46:25.224Z,3.70
2022-11-20T13:48:54.433Z,3.83
2022-11-20T13:51:31.626Z,3.08
2022-11-20T13:54:15.920Z,4.07
2022-11-20T13:56:49.815Z,3.30
2022-11-20T13:59:26.599Z,4.75
2022-11-20T14:01:55.407Z,3.70
2022-11-20T14:04:27.827Z,4.18
2022-11-20T14:06:56.045Z,4.75
2022-11-20T14:09:28.000Z,4.45
2022-11-20T14:11:55.477Z,4.95
2022-11-20T14:14:26.276Z,5.28
2022-11-20T14:16:54.314Z,4.47
2022-11-20T14:19:29.841Z,5.25
2022-11-20T14:22:09.048Z,5.00
2022-11-20T14:24:36.504Z,5.75
2022-11-20T14:27:04.099Z,5.00
2022-11-20T14:29:36.041Z,3.83
2022-11-20T14:32:04.566Z,5.70
2022-11-20T14:34:33.257Z,3.75
2022-11-20T14:37:01.623Z,4.97
2022-11-20T14:39:32.318Z,4.40
2022-11-20T14:41:59.818Z,4.93
2022-11-20T14:44:28.341Z,4.93
2022-11-20T14:46:57.766Z,4.85
2022-11-20T14:49:25.272Z,5.13
2022-11-20T14:52:00.580Z,3.65
2022-11-20T14:54:29.228Z,4.28
2022-11-20T14:56:57.258Z,4.22
2022-11-20T14:59:25.361Z,4.60
2022-11-20T15:01:58.892Z,4.60
2022-11-20T15:04:26.960Z,3.50
2022-11-20T15:06:56.288Z,5.35
2022-11-20T15:09:23.908Z,5.43
2022-11-20T15:11:55.897Z,5.53
2022-11-20T15:14:23.792Z,4.85
2022-11-20T15:16:51.549Z,5.60
2022-11-20T15:19:22.250Z,5.05
2022-11-20T15:21:49.771Z,5.65
2022-11-20T15:24:17.607Z,5.85
2022-11-20T15:26:45.520Z,5.82
2022-11-20T15:29:13.820Z,5.50
2022-11-20T15:31:44.239Z,5.40
2022-11-20T15:34:12.449Z,5.82
2022-11-20T15:36:41.289Z,5.47
2022-11-20T15:39:09.218Z,6.68
2022-11-20T15:41:37.094Z,6.57
2022-11-20T15:44:04.650Z,6.82
2022-11-20T15:46:33.862Z,6.72
2022-11-20T15:49:01.791Z,6.18
2022-11-20T15:51:30.806Z,6.25
2022-11-20T15:53:59.723Z,6.18
2022-11-20T15:56:27.494Z,6.20
2022-11-20T15:58:55.107Z,5.70
2022-11-20T16:01:23.069Z,6.35
2022-11-20T16:03:50.647Z,6.47
2022-11-20T16:06:18.164Z,6.90
2022-11-20T16:08:45.747Z,5.90
2022-11-20T16:11:15.908Z,5.60
2022-11-20T16:14:00.626Z,6.53
2022-11-20T16:18:57.101Z,6.13
2022-11-20T16:21:28.627Z,4.85
2022-11-20T16:26:24.836Z,5.80
2022-11-20T16:28:52.316Z,5.80
2022-11-20T16:31:20.989Z,6.07
2022-11-20T16:33:51.656Z,5.97
2022-11-20T16:36:19.796Z,5.80
2022-11-20T16:38:47.290Z,5.68
2022-11-20T16:41:15.254Z,5.78
2022-11-20T16:43:48.450Z,6.30
2022-11-20T16:46:15.971Z,5.90
2022-11-20T16:48:43.444Z,6.10
2022-11-20T16:51:11.674Z,5.68
2022-11-20T16:53:39.519Z,5.43
2022-11-20T16:56:10.632Z,6.88
2022-11-20T16:58:38.185Z,5.43
2022-11-20T17:01:10.781Z,5.30
2022-11-20T17:03:39.049Z,6.32
2022-11-20T17:06:13.361Z,5.70
2022-11-20T17:08:40.810Z,5.53
2022-11-20T17:11:08.707Z,5.93
2022-11-20T17:13:39.832Z,5.70
2022-11-20T17:16:08.483Z,5.63
2022-11-20T17:18:37.440Z,6.85
2022-11-20T17:21:05.680Z,6.15
2022-11-20T17:23:33.193Z,5.88
2022-11-20T17:26:05.240Z,4.80
2022-11-20T17:28:32.924Z,5.88
2022-11-20T17:31:00.907Z,6.30
2022-11-20T17:33:28.558Z,5.57
2022-11-20T17:35:57.706Z,6.38
2022-11-20T17:38:25.228Z,5.35
2022-11-20T17:40:52.704Z,6.40
2022-11-20T17:43:20.339Z,7.40
2022-11-20T17:45:47.792Z,7.70
2022-11-20T17:48:15.290Z,8.55
2022-11-20T17:50:42.825Z,8.10
2022-11-20T17:53:11.682Z,8.30
2022-11-20T17:55:56.561Z,7.70
2022-11-20T17:58:24.029Z,7.70
2022-11-20T18:00:51.557Z,7.55
2022-11-20T18:03:19.096Z,7.85
2022-11-20T18:05:46.601Z,7.10
2022-11-20T18:08:15.474Z,7.80
2022-11-20T18:10:42.930Z,6.97
2022-11-20T18:13:10.421Z,6.88
2022-11-20T18:15:37.890Z,7.35
2022-11-20T18:18:05.556Z,6.70
2022-11-20T18:20:38.253Z,6.78
2022-11-20T18:23:07.227Z,7.57
2022-11-20T18:25:36.098Z,7.13
2022-11-20T18:28:03.544Z,7.35
2022-11-20T18:30:31.224Z,8.60
2022-11-20T18:32:58.710Z,8.75
2022-11-20T18:35:27.538Z,7.85
2022-11-20T18:37:54.998Z,8.32
2022-11-20T18:40:22.481Z,7.90
2022-11-20T18:43:08.562Z,8.50
2022-11-20T18:45:36.028Z,7.53
2022-11-20T18:48:03.478Z,7.03
2022-11-20T18:50:31.017Z,7.22
2022-11-20T18:52:58.506Z,6.78
2022-11-20T18:55:25.993Z,6.07
2022-11-20T18:57:55.112Z,6.70
2022-11-20T19:00:22.840Z,5.35
2022-11-20T19:02:53.375Z,6.97
2022-11-20T19:05:20.904Z,7.47
2022-11-20T19:07:48.458Z,7.30
2022-11-20T19:10:18.841Z,7.68
2022-11-20T19:12:46.351Z,7.22
2022-11-20T19:15:15.293Z,6.85
2022-11-20T19:17:42.902Z,6.88
2022-11-20T19:20:10.816Z,7.72
2022-11-20T19:22:38.265Z,9.82
2022-11-20T19:25:06.170Z,11.07
2022-11-20T19:27:33.635Z,9.13
2022-11-20T19:30:03.109Z,7.60
2022-11-20T19:32:32.477Z,6.28
2022-11-20T19:34:59.986Z,8.82
2022-11-20T19:37:27.493Z,8.27
2022-11-20T19:39:56.586Z,7.70
2022-11-20T19:42:24.051Z,8.57
2022-11-20T19:44:51.493Z,7.65
2022-11-20T19:47:19.003Z,8.57
2022-11-20T19:49:47.833Z,7.28
2022-11-20T19:52:15.321Z,8.70
2022-11-20T19:54:42.880Z,9.55
2022-11-20T19:57:10.481Z,8.68
2022-11-20T19:59:38.251Z,7.95
2022-11-20T20:02:05.835Z,8.75
2022-11-20T20:04:33.355Z,7.63
2022-11-20T20:07:03.874Z,7.22
2022-11-20T20:09:31.470Z,7.72
2022-11-20T20:11:58.945Z,8.68
2022-11-20T20:14:26.649Z,8.10
2022-11-20T20:16:54.124Z,8.30
2022-11-20T20:19:21.973Z,7.43
2022-11-20T20:21:50.004Z,8.85
2022-11-20T20:24:18.982Z,8.52
2022-11-20T20:26:46.503Z,7.93
2022-11-20T20:29:14.010Z,8.35
2022-11-20T20:31:41.509Z,8.88
2022-11-20T20:34:08.985Z,8.55
2022-11-20T20:36:36.477Z,9.30
2022-11-20T20:39:03.998Z,9.20
2022-11-20T20:41:32.913Z,8.85
2022-11-20T20:44:17.614Z,8.32
2022-11-20T20:46:45.128Z,8.80
2022-11-20T20:49:12.568Z,9.18
2022-11-20T20:51:40.038Z,7.78
2022-11-20T20:54:07.565Z,7.95
2022-11-20T20:56:36.380Z,7.70
2022-11-20T20:59:04.289Z,7.97
2022-11-20T21:01:31.819Z,8.45
2022-11-20T21:03:59.388Z,8.95
2022-11-20T21:06:27.034Z,8.80
2022-11-20T21:08:55.834Z,8.73
2022-11-20T21:11:23.415Z,8.48
2022-11-20T21:13:52.290Z,8.93
2022-11-20T21:16:20.523Z,9.90
2022-11-20T21:18:47.956Z,10.20
2022-11-20T21:21:33.517Z,9.20
2022-11-20T21:24:01.287Z,9.07
2022-11-20T21:26:28.805Z,10.10
2022-11-20T21:28:58.711Z,10.00
2022-11-20T21:31:27.060Z,9.20
2022-11-20T21:33:55.361Z,9.82
2022-11-20T21:36:23.550Z,9.43
2022-11-20T21:38:52.202Z,8.57
2022-11-20T21:41:19.732Z,8.60
2022-11-20T21:44:03.814Z,9.52
2022-11-20T21:46:35.875Z,11.30
2022-11-20T21:49:04.790Z,10.07
2022-11-20T21:51:33.019Z,9.48
2022-11-20T21:54:00.513Z,9.68
2022-11-20T21:56:28.252Z,9.68
2022-11-20T21:58:56.189Z,9.02
2022-11-20T22:01:24.410Z,9.13
2022-11-20T22:03:53.562Z,9.60
2022-11-20T22:06:22.370Z,9.70
2022-11-20T22:08:49.883Z,10.35
2022-11-20T22:11:18.050Z,10.68
2022-11-20T22:14:03.665Z,10.10
2022-11-20T22:16:31.111Z,8.85
2022-11-20T22:18:58.860Z,9.80
2022-11-20T22:21:28.248Z,9.32
2022-11-20T22:23:55.954Z,10.10
2022-11-20T22:26:24.244Z,9.10
2022-11-20T22:28:52.710Z,9.15
2022-11-20T22:31:20.708Z,9.25
2022-11-20T22:33:48.186Z,8.88
2022-11-20T22:36:16.448Z,10.77
2022-11-20T22:38:45.306Z,9.18
2022-11-20T22:41:13.580Z,9.98
2022-11-20T22:43:41.481Z,9.32
2022-11-20T22:46:09.631Z,9.30
2022-11-20T22:48:38.142Z,9.88
2022-11-20T22:51:06.272Z,9.45
2022-11-20T22:53:33.866Z,8.65
2022-11-20T22:56:02.960Z,10.00
2022-11-20T22:58:30.669Z,9.18
2022-11-20T23:01:06.301Z,11.15
2022-11-20T23:03:33.910Z,9.35
2022-11-20T23:06:01.420Z,11.07
2022-11-20T23:08:29.029Z,9.25
2022-11-20T23:10:59.034Z,9.85
2022-11-20T23:13:28.427Z,9.20
2022-11-20T23:15:56.207Z,10.52
2022-11-20T23:18:23.825Z,10.40
2022-11-20T23:20:51.288Z,10.45
2022-11-20T23:23:18.755Z,10.43
2022-11-20T23:25:46.224Z,9.30
2022-11-20T23:28:13.744Z,10.00
2022-11-20T23:30:42.604Z,9.73
2022-11-20T23:33:10.050Z,11.48
2022-11-20T23:35:39.281Z,10.05
2022-11-20T23:38:06.790Z,10.65
2022-11-20T23:40:40.080Z,10.75
2022-11-20T23:43:17.420Z,10.48
2022-11-20T23:45:47.171Z,9.77
2022-11-20T23:48:15.069Z,9.10
2022-11-20T23:50:43.071Z,9.25
2022-11-20T23:53:10.648Z,9.70
2022-11-20T23:55:38.186Z,9.30
2022-11-20T23:58:05.897Z,8.85
